createdAt,value
2018-06-17T00:00:28.267Z,7.10
2018-06-17T00:02:55.449Z,7.20
2018-06-17T00:05:22.666Z,7.20
2018-06-17T00:07:49.853Z,6.23
2018-06-17T00:10:17.037Z,6.87
2018-06-17T00:12:44.212Z,6.87
2018-06-17T00:15:11.450Z,5.87
2018-06-17T00:17:38.655Z,7.33
2018-06-17T00:20:05.860Z,6.83
2018-06-17T00:22:33.076Z,6.50
2018-06-17T00:25:00.284Z,6.03
2018-06-17T00:27:27.485Z,7.00
2018-06-17T00:29:54.713Z,9.00
2018-06-17T00:32:21.910Z,6.67
2018-06-17T00:34:49.121Z,6.57
2018-06-17T00:37:16.437Z,6.23
2018-06-17T00:39:43.643Z,6.53
2018-06-17T00:42:10.873Z,6.73
2018-06-17T00:44:38.074Z,7.93
2018-06-17T00:47:05.277Z,6.93
2018-06-17T00:49:32.496Z,6.70
2018-06-17T00:51:59.717Z,7.17
2018-06-17T00:54:26.958Z,7.23
2018-06-17T00:57:05.870Z,7.90
2018-06-17T00:59:33.077Z,7.23
2018-06-17T01:02:00.305Z,6.80
2018-06-17T01:04:27.556Z,7.27
2018-06-17T01:06:54.757Z,6.83
2018-06-17T01:09:21.973Z,7.90
2018-06-17T01:11:50.137Z,6.90
2018-06-17T01:14:17.341Z,6.97
2018-06-17T01:16:44.536Z,7.00
2018-06-17T01:19:11.773Z,7.50
2018-06-17T01:21:38.972Z,6.60
2018-06-17T01:24:06.256Z,6.70
2018-06-17T01:26:33.489Z,6.43
2018-06-17T01:29:00.725Z,6.63
2018-06-17T01:31:27.945Z,6.50
2018-06-17T01:33:55.157Z,6.00
2018-06-17T01:36:22.362Z,6.60
2018-06-17T01:38:49.588Z,5.90
2018-06-17T01:41:16.872Z,6.30
2018-06-17T01:43:44.081Z,7.30
2018-06-17T01:46:11.299Z,6.50
2018-06-17T01:48:38.518Z,7.20
2018-06-17T01:51:06.013Z,7.47
2018-06-17T01:53:33.246Z,7.00
2018-06-17T01:56:00.485Z,6.10
2018-06-17T01:58:27.709Z,6.47
2018-06-17T02:00:54.924Z,6.30
2018-06-17T02:03:27.913Z,6.07
2018-06-17T02:06:01.005Z,6.13
2018-06-17T02:08:33.907Z,6.50
2018-06-17T02:11:06.898Z,6.23
2018-06-17T02:13:34.145Z,6.50
2018-06-17T02:16:01.362Z,5.73
2018-06-17T02:18:28.561Z,6.37
2018-06-17T02:20:55.764Z,6.07
2018-06-17T02:23:23.298Z,6.20
2018-06-17T02:25:50.546Z,6.03
2018-06-17T02:28:17.741Z,5.37
2018-06-17T02:30:44.941Z,5.33
2018-06-17T02:33:12.136Z,6.53
2018-06-17T02:35:39.516Z,6.67
2018-06-17T02:38:06.725Z,6.07
2018-06-17T02:40:33.922Z,6.03
2018-06-17T02:43:01.131Z,6.17
2018-06-17T02:46:36.996Z,6.40
2018-06-17T02:49:10.305Z,6.17
2018-06-17T02:51:43.253Z,6.53
2018-06-17T02:54:16.342Z,6.10
2018-06-17T02:56:43.553Z,6.00
2018-06-17T02:59:10.913Z,5.90
2018-06-17T03:01:38.129Z,5.60
2018-06-17T03:04:05.329Z,6.20
2018-06-17T03:06:32.530Z,6.93
2018-06-17T03:08:59.720Z,7.10
2018-06-17T03:11:26.949Z,5.90
2018-06-17T03:13:54.294Z,5.73
2018-06-17T03:16:21.523Z,5.70
2018-06-17T03:18:48.759Z,6.47
2018-06-17T03:21:15.985Z,6.43
2018-06-17T03:23:43.195Z,5.13
2018-06-17T03:26:16.073Z,5.70
2018-06-17T03:28:49.081Z,5.40
2018-06-17T03:31:16.577Z,5.77
2018-06-17T03:33:45.809Z,5.83
2018-06-17T03:36:13.497Z,5.40
2018-06-17T03:38:41.389Z,6.00
2018-06-17T03:41:09.264Z,5.40
2018-06-17T03:43:36.729Z,5.30
2018-06-17T03:46:03.972Z,4.90
2018-06-17T03:48:31.234Z,4.90
2018-06-17T03:50:58.453Z,4.57
2018-06-17T03:53:25.996Z,4.57
2018-06-17T03:55:53.268Z,5.40
2018-06-17T03:58:20.476Z,4.80
2018-06-17T04:00:47.689Z,4.87
2018-06-17T04:03:14.907Z,4.53
2018-06-17T04:05:42.133Z,4.20
2018-06-17T04:08:09.349Z,4.40
2018-06-17T04:10:36.577Z,5.00
2018-06-17T04:13:03.912Z,4.97
2018-06-17T04:15:31.113Z,4.93
2018-06-17T04:17:58.333Z,4.83
2018-06-17T04:20:25.530Z,5.10
2018-06-17T04:22:52.732Z,4.60
2018-06-17T04:25:19.949Z,4.40
2018-06-17T04:27:47.129Z,5.53
2018-06-17T04:30:14.326Z,4.87
2018-06-17T04:32:41.533Z,5.10
2018-06-17T04:35:08.740Z,5.33
2018-06-17T04:37:35.947Z,4.30
2018-06-17T04:40:03.188Z,5.30
2018-06-17T04:42:30.381Z,4.67
2018-06-17T04:44:57.574Z,3.90
2018-06-17T04:47:24.877Z,4.60
2018-06-17T04:49:52.077Z,5.10
2018-06-17T04:52:19.272Z,4.00
2018-06-17T04:54:46.528Z,4.47
2018-06-17T04:57:13.920Z,5.13
2018-06-17T04:59:41.184Z,4.17
2018-06-17T05:02:08.380Z,4.53
2018-06-17T05:04:35.591Z,4.30
2018-06-17T05:07:03.317Z,4.23
2018-06-17T05:09:30.516Z,4.40
2018-06-17T05:11:57.792Z,4.33
2018-06-17T05:14:25.057Z,3.90
2018-06-17T05:16:52.289Z,4.60
2018-06-17T05:19:19.498Z,4.53
2018-06-17T05:21:46.722Z,3.90
2018-06-17T05:24:13.926Z,4.40
2018-06-17T05:26:41.181Z,4.40
2018-06-17T05:29:08.719Z,3.80
2018-06-17T05:31:35.929Z,4.70
2018-06-17T05:34:03.165Z,3.73
2018-06-17T05:36:30.593Z,4.57
2018-06-17T05:38:57.945Z,3.97
2018-06-17T05:41:25.168Z,3.30
2018-06-17T05:43:52.456Z,4.17
2018-06-17T05:46:19.696Z,3.83
2018-06-17T05:48:46.932Z,4.07
2018-06-17T05:51:14.280Z,3.90
2018-06-17T05:53:42.016Z,3.80
2018-06-17T05:56:09.340Z,3.80
2018-06-17T05:58:36.577Z,4.20
2018-06-17T06:01:03.828Z,4.37
2018-06-17T06:03:31.055Z,5.10
2018-06-17T06:05:58.398Z,3.50
2018-06-17T06:08:25.609Z,4.07
2018-06-17T06:10:52.829Z,3.60
2018-06-17T06:13:20.087Z,4.60
2018-06-17T06:15:47.281Z,3.80
2018-06-17T06:18:14.484Z,3.70
2018-06-17T06:20:41.879Z,4.27
2018-06-17T06:23:09.099Z,4.00
2018-06-17T06:25:36.312Z,4.20
2018-06-17T06:28:03.605Z,3.93
2018-06-17T06:30:30.817Z,4.53
2018-06-17T06:32:58.156Z,3.60
2018-06-17T06:35:25.375Z,3.43
2018-06-17T06:37:52.724Z,4.10
2018-06-17T06:40:19.947Z,3.73
2018-06-17T06:42:47.156Z,4.00
2018-06-17T06:45:14.929Z,4.47
2018-06-17T06:47:42.150Z,4.50
2018-06-17T06:50:09.418Z,4.13
2018-06-17T06:52:36.583Z,4.30
2018-06-17T06:55:03.901Z,3.90
2018-06-17T06:57:31.198Z,4.60
2018-06-17T06:59:58.618Z,4.23
2018-06-17T07:02:37.413Z,4.27
2018-06-17T07:05:16.301Z,4.10
2018-06-17T07:08:55.058Z,4.70
2018-06-17T07:11:22.262Z,5.57
2018-06-17T07:13:49.477Z,4.50
2018-06-17T07:16:28.461Z,4.40
2018-06-17T07:18:55.721Z,5.07
2018-06-17T07:21:22.941Z,4.03
2018-06-17T07:23:50.158Z,3.90
2018-06-17T07:26:34.367Z,4.90
2018-06-17T07:29:13.088Z,3.80
2018-06-17T07:31:40.330Z,3.37
2018-06-17T07:34:08.136Z,4.30
2018-06-17T07:36:35.949Z,3.63
2018-06-17T07:41:12.805Z,4.10
2018-06-17T07:43:40.072Z,3.80
2018-06-17T07:46:07.325Z,4.37
2018-06-17T07:49:46.117Z,3.87
2018-06-17T07:52:26.280Z,4.20
2018-06-17T07:54:53.704Z,3.23
2018-06-17T07:57:22.149Z,3.23
2018-06-17T07:59:49.392Z,3.43
2018-06-17T08:02:16.868Z,3.20
2018-06-17T08:04:44.148Z,3.67
2018-06-17T08:07:11.332Z,3.60
2018-06-17T08:09:38.556Z,3.67
2018-06-17T08:12:07.698Z,3.53
2018-06-17T08:14:34.937Z,4.90
2018-06-17T08:17:02.156Z,9.03
2018-06-17T08:19:29.912Z,13.70
2018-06-17T08:21:57.987Z,4.83
2018-06-17T08:24:25.630Z,3.07
2018-06-17T08:26:53.092Z,3.10
2018-06-17T08:29:20.328Z,3.07
2018-06-17T08:31:47.580Z,3.13
2018-06-17T08:34:14.925Z,2.87
2018-06-17T08:36:42.168Z,2.90
2018-06-17T08:39:12.712Z,3.40
2018-06-17T08:41:40.266Z,3.20
2018-06-17T08:44:07.651Z,3.08
2018-06-17T08:46:35.102Z,3.40
2018-06-17T08:49:02.341Z,3.30
2018-06-17T08:51:29.557Z,3.30
2018-06-17T08:53:57.000Z,2.90
2018-06-17T08:56:24.860Z,3.30
2018-06-17T08:58:52.095Z,3.20
2018-06-17T09:01:19.340Z,3.30
2018-06-17T09:03:46.730Z,3.50
2018-06-17T09:06:13.974Z,3.05
2018-06-17T09:08:41.241Z,3.27
2018-06-17T09:11:08.570Z,3.45
2018-06-17T09:13:35.832Z,2.90
2018-06-17T09:16:03.080Z,3.30
2018-06-17T09:18:30.271Z,3.03
2018-06-17T09:20:57.514Z,3.43
2018-06-17T09:23:24.738Z,3.40
2018-06-17T09:25:51.986Z,3.07
2018-06-17T09:28:19.196Z,3.77
2018-06-17T09:30:46.397Z,2.87
2018-06-17T09:33:13.596Z,3.27
2018-06-17T09:35:40.810Z,3.03
2018-06-17T09:38:08.134Z,3.07
2018-06-17T09:40:35.407Z,2.80
2018-06-17T09:43:02.982Z,3.13
2018-06-17T09:45:30.232Z,2.93
2018-06-17T09:47:57.538Z,3.10
2018-06-17T09:50:24.765Z,3.20
2018-06-17T09:52:52.141Z,3.17
2018-06-17T09:55:19.432Z,3.37
2018-06-17T09:57:46.943Z,3.00
2018-06-17T10:00:20.312Z,2.97
2018-06-17T10:02:48.319Z,3.50
2018-06-17T10:05:15.575Z,2.90
2018-06-17T10:07:43.393Z,3.13
2018-06-17T10:10:52.604Z,3.13
2018-06-17T10:13:20.669Z,3.20
2018-06-17T10:15:48.444Z,3.03
2018-06-17T10:18:16.676Z,3.50
2018-06-17T10:20:44.030Z,2.73
2018-06-17T10:23:11.509Z,3.00
2018-06-17T10:25:38.733Z,3.33
2018-06-17T10:28:06.582Z,3.73
2018-06-17T10:30:34.695Z,3.27
2018-06-17T10:33:02.123Z,3.57
2018-06-17T10:35:29.765Z,3.30
2018-06-17T10:37:57.469Z,2.67
2018-06-17T10:40:24.881Z,2.63
2018-06-17T10:42:52.226Z,2.53
2018-06-17T10:45:19.594Z,2.62
2018-06-17T10:47:47.293Z,2.08
2018-06-17T10:50:15.017Z,3.40
2018-06-17T10:52:42.879Z,2.60
2018-06-17T10:55:11.633Z,2.83
2018-06-17T10:57:39.150Z,2.60
2018-06-17T11:00:07.420Z,2.77
2018-06-17T11:02:35.415Z,2.67
2018-06-17T11:05:03.152Z,3.20
2018-06-17T11:07:30.525Z,2.60
2018-06-17T11:09:57.891Z,3.08
2018-06-17T11:12:25.405Z,2.90
2018-06-17T11:14:52.625Z,2.80
2018-06-17T11:17:20.005Z,3.50
2018-06-17T11:19:47.528Z,2.98
2018-06-17T11:22:14.685Z,2.77
2018-06-17T11:24:41.947Z,2.37
2018-06-17T11:27:09.501Z,2.50
2018-06-17T11:29:37.034Z,2.50
2018-06-17T11:32:04.509Z,2.72
2018-06-17T11:34:31.719Z,2.80
2018-06-17T11:36:58.975Z,2.62
2018-06-17T11:39:26.205Z,3.08
2018-06-17T11:41:53.424Z,2.70
2018-06-17T11:44:20.842Z,3.40
2018-06-17T11:46:48.094Z,2.65
2018-06-17T11:49:15.760Z,2.30
2018-06-17T11:51:42.984Z,2.97
2018-06-17T11:54:10.248Z,3.30
2018-06-17T11:56:37.626Z,3.03
2018-06-17T11:59:05.140Z,2.83
2018-06-17T12:01:32.469Z,3.07
2018-06-17T12:03:59.678Z,3.00
2018-06-17T12:06:26.872Z,2.93
2018-06-17T12:08:54.201Z,3.23
2018-06-17T12:11:21.502Z,2.77
2018-06-17T12:13:48.845Z,3.63
2018-06-17T12:16:16.109Z,2.57
2018-06-17T12:18:43.780Z,2.97
2018-06-17T12:21:11.156Z,2.60
2018-06-17T12:23:38.381Z,2.70
2018-06-17T12:26:05.594Z,3.10
2018-06-17T12:28:32.817Z,3.77
2018-06-17T12:31:00.109Z,2.67
2018-06-17T12:33:27.522Z,3.00
2018-06-17T12:35:54.702Z,2.87
2018-06-17T12:38:22.033Z,3.10
2018-06-17T12:40:49.295Z,3.03
2018-06-17T12:43:16.515Z,2.73
2018-06-17T12:45:43.847Z,3.03
2018-06-17T12:48:11.206Z,2.40
2018-06-17T12:50:38.546Z,2.93
2018-06-17T12:53:05.933Z,3.00
2018-06-17T12:55:33.144Z,3.27
2018-06-17T12:58:00.363Z,2.60
2018-06-17T13:00:27.745Z,2.77
2018-06-17T13:02:55.105Z,2.93
2018-06-17T13:05:22.316Z,2.87
2018-06-17T13:07:49.524Z,2.73
2018-06-17T13:10:16.945Z,2.83
2018-06-17T13:12:44.184Z,2.60
2018-06-17T13:15:11.677Z,2.20
2018-06-17T13:17:38.938Z,2.77
2018-06-17T13:20:06.212Z,2.70
2018-06-17T13:22:33.983Z,2.50
2018-06-17T13:25:01.379Z,2.67
2018-06-17T13:27:28.992Z,3.63
2018-06-17T13:29:56.297Z,2.60
2018-06-17T13:32:23.620Z,2.70
2018-06-17T13:34:50.883Z,2.60
2018-06-17T13:37:18.123Z,2.50
2018-06-17T13:39:45.854Z,2.53
2018-06-17T13:42:13.088Z,1.80
2018-06-17T13:44:40.361Z,2.43
2018-06-17T13:47:07.629Z,2.53
2018-06-17T13:49:34.877Z,2.90
2018-06-17T13:52:02.373Z,2.90
2018-06-17T13:54:29.661Z,2.43
2018-06-17T13:56:57.009Z,2.23
2018-06-17T13:59:24.301Z,2.40
2018-06-17T14:01:51.618Z,2.60
2018-06-17T14:04:18.918Z,3.07
2018-06-17T14:06:46.161Z,2.93
2018-06-17T14:09:13.443Z,3.80
2018-06-17T14:11:40.668Z,4.27
2018-06-17T14:14:07.906Z,2.90
2018-06-17T14:16:35.245Z,3.80
2018-06-17T14:19:02.561Z,2.93
2018-06-17T14:21:29.883Z,3.10
2018-06-17T14:23:57.272Z,3.23
2018-06-17T14:26:24.525Z,2.73
2018-06-17T14:28:51.770Z,2.33
2018-06-17T14:31:19.169Z,3.07
2018-06-17T14:33:46.565Z,2.70
2018-06-17T14:36:13.860Z,2.30
2018-06-17T14:38:41.150Z,2.90
2018-06-17T14:41:14.129Z,2.57
2018-06-17T14:43:47.057Z,2.80
2018-06-17T14:46:21.145Z,2.73
2018-06-17T14:48:54.352Z,2.93
2018-06-17T14:51:27.421Z,2.83
2018-06-17T14:53:54.672Z,2.47
2018-06-17T14:56:21.925Z,2.77
2018-06-17T14:58:49.253Z,4.23
2018-06-17T15:01:16.653Z,2.60
2018-06-17T15:03:44.041Z,2.70
2018-06-17T15:06:11.288Z,2.73
2018-06-17T15:08:38.628Z,2.83
2018-06-17T15:11:07.145Z,2.80
2018-06-17T15:13:34.442Z,5.80
2018-06-17T15:16:01.801Z,3.10
2018-06-17T15:18:29.217Z,3.37
2018-06-17T15:20:56.470Z,3.40
2018-06-17T15:23:23.760Z,3.80
2018-06-17T15:25:51.101Z,3.87
2018-06-17T15:28:18.317Z,3.30
2018-06-17T15:30:45.823Z,3.30
2018-06-17T15:33:18.771Z,3.43
2018-06-17T15:35:51.698Z,2.80
2018-06-17T15:38:24.577Z,3.93
2018-06-17T15:40:57.490Z,3.40
2018-06-17T15:43:25.281Z,2.80
2018-06-17T15:45:52.505Z,3.57
2018-06-17T15:48:19.828Z,2.93
2018-06-17T15:50:47.096Z,2.50
2018-06-17T15:53:14.345Z,3.87
2018-06-17T15:55:41.617Z,2.80
2018-06-17T15:58:08.847Z,2.70
2018-06-17T16:00:36.129Z,3.10
2018-06-17T16:03:03.480Z,3.00
2018-06-17T16:05:30.889Z,3.00
2018-06-17T16:07:58.894Z,2.83
2018-06-17T16:10:26.114Z,2.70
2018-06-17T16:12:59.202Z,2.60
2018-06-17T16:15:32.186Z,2.90
2018-06-17T16:18:05.299Z,3.03
2018-06-17T16:20:38.354Z,3.57
2018-06-17T16:23:05.642Z,3.23
2018-06-17T16:25:32.890Z,2.73
2018-06-17T16:28:00.218Z,2.93
2018-06-17T16:30:27.518Z,3.50
2018-06-17T16:32:54.718Z,2.67
2018-06-17T16:35:21.967Z,2.50
2018-06-17T16:37:49.190Z,2.77
2018-06-17T16:40:16.607Z,2.80
2018-06-17T16:44:13.630Z,3.00
2018-06-17T16:46:41.369Z,2.80
2018-06-17T16:49:08.765Z,3.10
2018-06-17T16:51:41.806Z,3.37
2018-06-17T16:54:14.921Z,3.00
2018-06-17T16:56:48.009Z,2.90
2018-06-17T16:59:21.041Z,3.20
2018-06-17T17:01:48.645Z,3.40
2018-06-17T17:04:16.018Z,2.60
2018-06-17T17:06:43.377Z,2.60
2018-06-17T17:09:11.273Z,2.97
2018-06-17T17:11:39.429Z,3.10
2018-06-17T17:14:06.674Z,3.30
2018-06-17T17:16:34.863Z,3.23
2018-06-17T17:19:02.525Z,3.10
2018-06-17T17:21:29.784Z,3.40
2018-06-17T17:23:57.061Z,4.00
2018-06-17T17:26:28.380Z,3.30
2018-06-17T17:28:55.745Z,2.80
2018-06-17T17:31:23.144Z,3.60
2018-06-17T17:33:56.062Z,3.47
2018-06-17T17:36:28.991Z,3.60
2018-06-17T17:39:02.831Z,3.73
2018-06-17T17:41:30.060Z,3.50
2018-06-17T17:43:57.329Z,3.10
2018-06-17T17:46:30.262Z,2.80
2018-06-17T17:48:57.496Z,4.50
2018-06-17T17:51:24.717Z,3.33
2018-06-17T17:53:51.910Z,3.30
2018-06-17T17:56:19.137Z,3.27
2018-06-17T17:58:46.374Z,3.20
2018-06-17T18:01:13.692Z,3.30
2018-06-17T18:03:40.936Z,3.30
2018-06-17T18:06:08.137Z,3.37
2018-06-17T18:08:35.369Z,3.67
2018-06-17T18:11:02.598Z,3.23
2018-06-17T18:13:29.966Z,3.03
2018-06-17T18:15:57.272Z,3.30
2018-06-17T18:18:24.465Z,3.33
2018-06-17T18:20:51.660Z,3.60
2018-06-17T18:23:18.865Z,3.10
2018-06-17T18:25:51.837Z,3.20
2018-06-17T18:28:24.718Z,3.10
2018-06-17T18:30:54.549Z,3.47
2018-06-17T18:33:27.613Z,3.67
2018-06-17T18:36:00.693Z,3.10
2018-06-17T18:38:27.910Z,3.57
2018-06-17T18:40:55.145Z,3.30
2018-06-17T18:43:22.377Z,3.33
2018-06-17T18:45:49.586Z,3.90
2018-06-17T18:48:16.821Z,3.17
2018-06-17T18:50:44.092Z,3.50
2018-06-17T18:53:11.345Z,3.57
2018-06-17T18:55:38.557Z,3.47
2018-06-17T18:58:05.808Z,3.30
2018-06-17T19:00:33.060Z,3.67
2018-06-17T19:03:00.280Z,3.30
2018-06-17T19:05:27.502Z,3.30
2018-06-17T19:07:54.712Z,2.70
2018-06-17T19:10:27.702Z,3.93
2018-06-17T19:13:00.680Z,2.90
2018-06-17T19:16:37.664Z,2.80
2018-06-17T19:19:08.040Z,2.77
2018-06-17T19:21:35.298Z,2.77
2018-06-17T19:24:02.742Z,2.63
2018-06-17T19:26:30.036Z,3.00
2018-06-17T19:28:57.197Z,2.67
2018-06-17T19:31:24.426Z,2.63
2018-06-17T19:33:51.665Z,3.10
2018-06-17T19:36:18.901Z,2.73
2018-06-17T19:38:46.154Z,3.00
2018-06-17T19:41:13.411Z,4.97
2018-06-17T19:43:40.682Z,3.40
2018-06-17T19:46:08.017Z,2.80
2018-06-17T19:48:35.236Z,3.00
2018-06-17T19:51:08.107Z,3.00
2018-06-17T19:53:41.119Z,2.57
2018-06-17T19:56:14.048Z,2.83
2018-06-17T19:58:47.027Z,3.43
2018-06-17T20:01:14.258Z,3.50
2018-06-17T20:03:41.533Z,3.10
2018-06-17T20:06:08.932Z,3.20
2018-06-17T20:08:36.118Z,3.40
2018-06-17T20:11:03.364Z,3.30
2018-06-17T20:13:30.623Z,3.63
2018-06-17T20:15:57.934Z,2.87
2018-06-17T20:18:25.149Z,2.70
2018-06-17T20:20:52.362Z,3.20
2018-06-17T20:23:19.880Z,2.90
2018-06-17T20:25:47.077Z,3.10
2018-06-17T20:28:14.309Z,2.77
2018-06-17T20:30:41.510Z,3.73
2018-06-17T20:33:14.445Z,3.00
2018-06-17T20:35:47.227Z,2.70
2018-06-17T20:38:20.308Z,3.10
2018-06-17T20:40:53.225Z,3.30
2018-06-17T20:43:26.129Z,3.07
2018-06-17T20:45:53.354Z,3.27
2018-06-17T20:48:20.577Z,3.43
2018-06-17T20:50:47.957Z,2.83
2018-06-17T20:53:15.173Z,3.07
2018-06-17T20:55:42.379Z,3.50
2018-06-17T20:58:09.630Z,3.67
2018-06-17T21:00:36.869Z,3.53
2018-06-17T21:03:04.289Z,3.40
2018-06-17T21:05:31.592Z,3.00
2018-06-17T21:07:58.834Z,2.87
2018-06-17T21:10:26.074Z,3.00
2018-06-17T21:12:53.371Z,2.97
2018-06-17T21:15:20.596Z,2.93
2018-06-17T21:17:49.341Z,3.63
2018-06-17T21:20:22.310Z,3.30
2018-06-17T21:22:55.385Z,3.60
2018-06-17T21:25:28.445Z,3.17
2018-06-17T21:27:57.082Z,2.90
2018-06-17T21:30:24.325Z,3.77
2018-06-17T21:32:51.544Z,3.60
2018-06-17T21:35:18.789Z,3.57
2018-06-17T21:37:46.192Z,3.37
2018-06-17T21:40:13.468Z,2.80
2018-06-17T21:42:41.240Z,3.60
2018-06-17T21:45:08.904Z,3.40
2018-06-17T21:47:36.142Z,3.40
2018-06-17T21:50:03.496Z,3.10
2018-06-17T21:52:30.732Z,2.57
2018-06-17T21:54:57.945Z,3.40
2018-06-17T21:57:25.182Z,3.27
2018-06-17T21:59:52.426Z,3.47
2018-06-17T22:02:19.665Z,3.70
2018-06-17T22:04:46.868Z,3.50
2018-06-17T22:07:14.054Z,3.17
2018-06-17T22:09:46.973Z,3.33
2018-06-17T22:12:20.040Z,3.13
2018-06-17T22:14:53.077Z,3.87
2018-06-17T22:17:25.985Z,3.10
2018-06-17T22:19:53.204Z,3.80
2018-06-17T22:22:20.500Z,3.80
2018-06-17T22:24:47.709Z,3.40
2018-06-17T22:27:14.916Z,3.10
2018-06-17T22:29:42.597Z,3.67
2018-06-17T22:32:09.805Z,3.00
2018-06-17T22:34:37.539Z,3.20
2018-06-17T22:37:04.793Z,4.40
2018-06-17T22:39:31.981Z,3.33
2018-06-17T22:41:59.197Z,3.50
2018-06-17T22:44:26.593Z,3.83
2018-06-17T22:46:54.081Z,3.30
2018-06-17T22:49:21.280Z,3.50
2018-06-17T22:51:48.490Z,3.90
2018-06-17T22:54:27.372Z,4.30
2018-06-17T22:57:00.365Z,3.90
2018-06-17T22:59:33.296Z,3.70
2018-06-17T23:02:06.309Z,3.80
2018-06-17T23:04:39.158Z,3.90
2018-06-17T23:07:12.177Z,3.83
2018-06-17T23:09:41.284Z,4.33
2018-06-17T23:12:08.535Z,4.10
2018-06-17T23:14:35.716Z,3.90
2018-06-17T23:17:02.965Z,3.27
2018-06-17T23:19:30.495Z,3.70
2018-06-17T23:21:57.736Z,3.73
2018-06-17T23:24:24.959Z,3.30
2018-06-17T23:26:52.405Z,3.63
2018-06-17T23:29:19.632Z,3.63
2018-06-17T23:31:47.132Z,3.27
2018-06-17T23:34:14.349Z,3.17
2018-06-17T23:36:41.591Z,4.33
2018-06-17T23:39:10.050Z,3.77
2018-06-17T23:41:37.312Z,3.93
2018-06-17T23:44:04.550Z,3.60
2018-06-17T23:46:37.453Z,3.70
2018-06-17T23:49:10.533Z,3.70
2018-06-17T23:51:43.539Z,3.80
2018-06-17T23:54:16.566Z,3.97
2018-06-17T23:56:43.989Z,3.60
2018-06-17T23:59:11.216Z,3.90
